Time;durP1;ratioP1;P1;durP2;ratioP2;P2;SDS_P1;SDS_P2;PMS_P1;PMS_P2;Temp;Humidity;BMP_temperature;BMP_pressure;BME280_temperature;BME280_humidity;BME280_pressure;Samples;Min_cycle;Max_cycle;Signal;HPM_P1;HPM_P2
2022/11/30 00:00:14;;;;;;;;;31.25;29.00;;;;;-147.17;100.00;-15917.19;5024653;28;51089;-56
2022/11/30 00:02:40;;;;;;;;;33.00;29.00;;;;;-147.17;100.00;-15917.19;5022052;28;51023;-55
2022/11/30 00:05:06;;;;;;;;;22.25;19.50;;;;;-147.17;100.00;-15917.19;5027459;28;51169;-56
2022/11/30 00:07:32;;;;;;;;;32.25;29.75;;;;;-147.17;100.00;-15917.19;5020619;28;51140;-55
2022/11/30 00:09:57;;;;;;;;;46.75;39.00;;;;;-147.17;100.00;-15917.19;5022124;28;51172;-56
2022/11/30 00:12:22;;;;;;;;;34.25;29.00;;;;;-147.17;100.00;-15917.19;5026732;28;51176;-54
2022/11/30 00:14:48;;;;;;;;;34.25;29.25;;;;;-147.17;100.00;-15917.19;5028893;28;51105;-56
2022/11/30 00:17:13;;;;;;;;;21.50;19.50;;;;;-147.17;100.00;-15917.19;5026667;28;54690;-54
2022/11/30 00:19:39;;;;;;;;;33.00;30.00;;;;;-147.17;100.00;-15917.19;5022990;28;51999;-57
2022/11/30 00:22:04;;;;;;;;;30.25;29.25;;;;;-147.17;100.00;-15917.19;5025285;28;51287;-56
2022/11/30 00:24:29;;;;;;;;;31.00;27.00;;;;;-147.17;100.00;-15917.19;5033573;28;51341;-56
2022/11/30 00:26:55;;;;;;;;;33.25;30.25;;;;;-147.17;100.00;-15917.19;5027377;28;56310;-57
2022/11/30 00:29:20;;;;;;;;;33.50;28.25;;;;;-147.17;100.00;-15917.19;5026806;28;56711;-55
2022/11/30 00:31:45;;;;;;;;;33.25;31.00;;;;;-147.17;100.00;-15917.19;5033286;28;51237;-54
2022/11/30 00:34:11;;;;;;;;;27.75;24.75;;;;;-147.17;100.00;-15917.19;5031521;28;51334;-53
2022/11/30 00:36:36;;;;;;;;;28.50;25.75;;;;;-147.17;100.00;-15917.19;5032269;28;51967;-54
2022/11/30 00:39:04;;;;;;;;;41.25;34.00;;;;;-147.17;100.00;-15917.19;5031536;28;51196;-57
2022/11/30 00:41:29;;;;;;;;;34.50;30.50;;;;;-147.17;100.00;-15917.19;5019430;28;50981;-55
2022/11/30 00:43:54;;;;;;;;;32.75;30.00;;;;;-147.17;100.00;-15917.19;5033494;28;51286;-54
2022/11/30 00:46:20;;;;;;;;;37.25;30.50;;;;;-147.17;100.00;-15917.19;5018244;28;51882;-54
2022/11/30 00:48:45;;;;;;;;;27.00;24.00;;;;;-147.17;100.00;-15917.19;5022073;28;51068;-54
2022/11/30 00:51:11;;;;;;;;;31.25;28.75;;;;;-147.17;100.00;-15917.19;5022977;28;51069;-56
2022/11/30 00:53:37;;;;;;;;;30.75;29.75;;;;;-147.17;100.00;-15917.19;5023454;28;50941;-52
2022/11/30 00:56:03;;;;;;;;;29.50;28.50;;;;;-147.17;100.00;-15917.19;5024153;28;53213;-55
2022/11/30 00:58:28;;;;;;;;;29.00;25.00;;;;;-147.17;100.00;-15917.19;5028277;28;51201;-55
2022/11/30 01:00:54;;;;;;;;;30.75;30.00;;;;;-147.17;100.00;-15917.19;5025369;28;51004;-55
2022/11/30 01:03:19;;;;;;;;;32.25;28.75;;;;;-147.17;100.00;-15917.19;5030016;28;51059;-56
2022/11/30 01:05:44;;;;;;;;;30.50;27.50;;;;;-147.17;100.00;-15917.19;5027972;28;51305;-53
2022/11/30 01:08:11;;;;;;;;;29.25;25.25;;;;;-147.17;100.00;-15917.19;5023362;28;51215;-53
2022/11/30 01:10:39;;;;;;;;;30.75;27.50;;;;;-147.17;100.00;-15917.19;5021327;28;51159;-56
2022/11/30 01:13:05;;;;;;;;;25.75;23.75;;;;;-147.17;100.00;-15917.19;5032000;28;51219;-53
2022/11/30 01:15:30;;;;;;;;;28.75;27.25;;;;;-147.17;100.00;-15917.19;5026440;28;51850;-54
2022/11/30 01:17:58;;;;;;;;;28.75;25.75;;;;;-147.17;100.00;-15917.19;5021362;28;50997;-55
2022/11/30 01:20:24;;;;;;;;;27.00;25.00;;;;;-147.17;100.00;-15917.19;5017890;28;51296;-53
2022/11/30 01:22:49;;;;;;;;;24.75;20.75;;;;;-147.17;100.00;-15917.19;5021386;28;51431;-54
2022/11/30 01:25:14;;;;;;;;;24.50;24.25;;;;;-147.17;100.00;-15917.19;5024698;28;51296;-54
2022/11/30 01:27:40;;;;;;;;;29.25;28.25;;;;;-147.17;100.00;-15917.19;5019829;28;51040;-55
2022/11/30 01:30:06;;;;;;;;;28.00;26.75;;;;;-147.17;100.00;-15917.19;5030845;28;56042;-56
2022/11/30 01:32:31;;;;;;;;;36.00;32.50;;;;;-147.17;100.00;-15917.19;5020975;28;51362;-54
2022/11/30 01:34:57;;;;;;;;;36.00;29.00;;;;;-147.17;100.00;-15917.19;5025515;28;51163;-54
2022/11/30 01:37:22;;;;;;;;;29.25;28.00;;;;;-147.17;100.00;-15917.19;5024524;28;51110;-56
2022/11/30 01:39:47;;;;;;;;;28.50;26.00;;;;;-147.17;100.00;-15917.19;5028626;28;52763;-55
2022/11/30 01:42:19;;;;;;;;;27.75;22.75;;;;;-147.17;100.00;-15917.19;5027023;28;50878;-53
2022/11/30 01:44:51;;;;;;;;;32.00;29.25;;;;;-147.17;100.00;-15917.19;5027780;28;51954;-54
2022/11/30 01:47:21;;;;;;;;;22.25;21.50;;;;;-147.17;100.00;-15917.19;5015163;28;50936;-55
2022/11/30 01:49:52;;;;;;;;;29.50;27.75;;;;;-147.17;100.00;-15917.19;5020519;28;51038;-55
2022/11/30 01:52:26;;;;;;;;;30.50;28.00;;;;;-147.17;100.00;-15917.19;5018922;28;50981;-55
2022/11/30 01:55:20;;;;;;;;;32.75;32.25;;;;;-147.17;100.00;-15917.19;5035786;28;51896;-55
2022/11/30 01:57:56;;;;;;;;;32.25;30.75;;;;;-147.17;100.00;-15917.19;5019919;28;51002;-54
2022/11/30 02:00:22;;;;;;;;;25.50;23.75;;;;;-147.17;100.00;-15917.19;5028309;28;51127;-55
2022/11/30 02:03:13;;;;;;;;;30.75;25.25;;;;;-147.17;100.00;-15917.19;5025607;28;51219;-54
2022/11/30 02:05:40;;;;;;;;;32.25;28.25;;;;;-147.17;100.00;-15917.19;5029999;28;52824;-54
2022/11/30 02:08:07;;;;;;;;;30.50;28.50;;;;;-147.17;100.00;-15917.19;5030526;28;51416;-53
2022/11/30 02:10:36;;;;;;;;;25.50;23.75;;;;;-147.17;100.00;-15917.19;5024736;28;51487;-54
2022/11/30 02:13:32;;;;;;;;;29.50;28.75;;;;;-147.17;100.00;-15917.19;5029985;28;51141;-54
2022/11/30 02:16:04;;;;;;;;;29.50;25.25;;;;;-147.17;100.00;-15917.19;5020981;28;51871;-57
2022/11/30 02:18:53;;;;;;;;;26.50;25.50;;;;;-147.17;100.00;-15917.19;5030221;28;51135;-55
2022/11/30 02:21:31;;;;;;;;;31.75;28.75;;;;;-147.17;100.00;-15917.19;5018316;28;51124;-54
2022/11/30 02:24:21;;;;;;;;;33.00;28.25;;;;;-147.17;100.00;-15917.19;5030983;28;51158;-54
2022/11/30 02:26:58;;;;;;;;;29.75;27.00;;;;;-147.17;100.00;-15917.19;5026314;28;52764;-54
2022/11/30 02:29:39;;;;;;;;;25.50;21.75;;;;;-147.17;100.00;-15917.19;5028109;28;50884;-56
2022/11/30 02:32:05;;;;;;;;;29.00;24.75;;;;;-147.17;100.00;-15917.19;5018060;28;51202;-54
2022/11/30 02:34:33;;;;;;;;;31.00;28.50;;;;;-147.17;100.00;-15917.19;5026948;28;51184;-54
2022/11/30 02:37:00;;;;;;;;;33.00;29.75;;;;;-147.17;100.00;-15917.19;5024347;28;51927;-54
2022/11/30 02:39:26;;;;;;;;;24.25;21.75;;;;;-147.17;100.00;-15917.19;5026922;28;51123;-55
2022/11/30 02:41:51;;;;;;;;;23.25;21.50;;;;;-147.17;100.00;-15917.19;5031444;28;51891;-54
2022/11/30 02:44:19;;;;;;;;;30.50;28.25;;;;;-147.17;100.00;-15917.19;5026941;28;51407;-54
2022/11/30 02:47:06;;;;;;;;;17.75;17.50;;;;;-147.17;100.00;-15917.19;5024673;28;51141;-54
2022/11/30 02:49:57;;;;;;;;;17.75;14.25;;;;;-147.17;100.00;-15917.19;5026422;28;50938;-52
2022/11/30 02:52:26;;;;;;;;;18.25;17.25;;;;;-147.17;100.00;-15917.19;5030051;28;51041;-54
2022/11/30 02:54:57;;;;;;;;;20.75;20.25;;;;;-147.17;100.00;-15917.19;5015676;28;51050;-55
2022/11/30 02:57:23;;;;;;;;;19.25;16.00;;;;;-147.17;100.00;-15917.19;5030855;28;51909;-55
2022/11/30 02:59:48;;;;;;;;;16.25;14.25;;;;;-147.17;100.00;-15917.19;5020396;28;51153;-55
2022/11/30 03:02:14;;;;;;;;;18.00;17.25;;;;;-147.17;100.00;-15917.19;5028891;28;51041;-54
2022/11/30 03:04:39;;;;;;;;;15.75;15.75;;;;;-147.17;100.00;-15917.19;5025127;28;51367;-55
2022/11/30 03:07:04;;;;;;;;;8.00;7.00;;;;;-147.17;100.00;-15917.19;5025925;28;51851;-55
2022/11/30 03:09:30;;;;;;;;;15.50;13.50;;;;;-147.17;100.00;-15917.19;5017847;28;51082;-55
2022/11/30 03:11:55;;;;;;;;;14.25;13.50;;;;;-147.17;100.00;-15917.19;5027366;28;51120;-53
2022/11/30 03:14:21;;;;;;;;;16.25;15.50;;;;;-147.17;100.00;-15917.19;5016083;28;51397;-54
2022/11/30 03:16:46;;;;;;;;;17.25;14.25;;;;;-147.17;100.00;-15917.19;5018959;28;51057;-54
2022/11/30 03:19:13;;;;;;;;;19.25;17.00;;;;;-147.17;100.00;-15917.19;5027605;28;51162;-56
2022/11/30 03:21:38;;;;;;;;;19.00;17.00;;;;;-147.17;100.00;-15917.19;5028690;28;51044;-53
2022/11/30 03:24:04;;;;;;;;;18.25;14.75;;;;;-147.17;100.00;-15917.19;5024604;28;51348;-54
2022/11/30 03:26:29;;;;;;;;;14.50;13.75;;;;;-147.17;100.00;-15917.19;5021828;28;51830;-55
2022/11/30 03:28:54;;;;;;;;;18.75;17.75;;;;;-147.17;100.00;-15917.19;5028857;28;51079;-55
2022/11/30 03:31:20;;;;;;;;;21.25;19.00;;;;;-147.17;100.00;-15917.19;5021166;28;51114;-54
2022/11/30 03:33:45;;;;;;;;;15.25;14.00;;;;;-147.17;100.00;-15917.19;5029205;28;51413;-55
2022/11/30 03:36:11;;;;;;;;;14.25;14.00;;;;;-147.17;100.00;-15917.19;5019244;28;51797;-55
2022/11/30 03:38:37;;;;;;;;;19.25;17.00;;;;;-147.17;100.00;-15917.19;5027256;28;51076;-54
2022/11/30 03:41:09;;;;;;;;;23.00;22.50;;;;;-147.17;100.00;-15917.19;5014299;28;51341;-57
2022/11/30 03:43:35;;;;;;;;;16.00;15.00;;;;;-147.17;100.00;-15917.19;5026230;28;51037;-55
2022/11/30 03:46:00;;;;;;;;;11.75;11.25;;;;;-147.17;100.00;-15917.19;5019916;28;51742;-54
2022/11/30 03:48:26;;;;;;;;;11.75;10.50;;;;;-147.17;100.00;-15917.19;5028790;28;51261;-55
2022/11/30 03:50:51;;;;;;;;;15.50;14.25;;;;;-147.17;100.00;-15917.19;5032286;28;52194;-53
2022/11/30 03:53:18;;;;;;;;;18.50;16.25;;;;;-147.17;100.00;-15917.19;5022411;28;51108;-53
2022/11/30 03:55:43;;;;;;;;;17.75;17.50;;;;;-147.17;100.00;-15917.19;5025909;28;51095;-56
2022/11/30 03:58:09;;;;;;;;;21.00;15.50;;;;;-147.17;100.00;-15917.19;5032123;28;51186;-56
2022/11/30 04:00:35;;;;;;;;;18.00;17.50;;;;;-147.17;100.00;-15917.19;5025686;28;51198;-61
2022/11/30 04:03:00;;;;;;;;;12.25;12.00;;;;;-147.17;100.00;-15917.19;5017027;28;51061;-55
2022/11/30 04:05:26;;;;;;;;;10.75;10.75;;;;;-147.17;100.00;-15917.19;5025743;28;52000;-55
2022/11/30 04:07:51;;;;;;;;;10.75;9.25;;;;;-147.17;100.00;-15917.19;4984641;28;1261687;-55
2022/11/30 04:10:16;;;;;;;;;12.25;12.00;;;;;-147.17;100.00;-15917.19;5031203;28;51172;-55
2022/11/30 04:12:42;;;;;;;;;8.50;7.00;;;;;-147.17;100.00;-15917.19;5033793;28;51247;-55
2022/11/30 04:15:08;;;;;;;;;11.75;10.00;;;;;-147.17;100.00;-15917.19;5029528;28;53815;-55
2022/11/30 04:17:33;;;;;;;;;11.50;9.75;;;;;-147.17;100.00;-15917.19;5029796;28;51531;-55
2022/11/30 04:19:58;;;;;;;;;12.75;11.50;;;;;-147.17;100.00;-15917.19;5022129;28;51317;-54
2022/11/30 04:22:24;;;;;;;;;7.25;7.25;;;;;-147.17;100.00;-15917.19;5020614;28;51437;-55
2022/11/30 04:24:49;;;;;;;;;10.00;10.00;;;;;-147.17;100.00;-15917.19;5028890;28;52739;-56
2022/11/30 04:27:14;;;;;;;;;9.75;9.75;;;;;-147.17;100.00;-15917.19;5019625;28;53532;-56
2022/11/30 04:29:39;;;;;;;;;14.25;12.50;;;;;-147.17;100.00;-15917.19;5022115;28;50970;-52
2022/11/30 04:32:05;;;;;;;;;15.75;12.00;;;;;-147.17;100.00;-15917.19;5019199;28;51288;-55
2022/11/30 04:34:30;;;;;;;;;15.75;15.00;;;;;-147.17;100.00;-15917.19;5028556;28;52586;-55
2022/11/30 04:36:56;;;;;;;;;10.00;8.75;;;;;-147.17;100.00;-15917.19;5027874;28;51510;-54
2022/11/30 04:39:21;;;;;;;;;15.25;14.00;;;;;-147.17;100.00;-15917.19;5024712;28;54933;-56
2022/11/30 04:41:47;;;;;;;;;14.75;13.25;;;;;-147.17;100.00;-15917.19;5025544;28;51201;-54
2022/11/30 04:44:12;;;;;;;;;16.25;14.50;;;;;-147.17;100.00;-15917.19;5025485;28;52623;-54
2022/11/30 04:46:37;;;;;;;;;12.25;11.50;;;;;-147.17;100.00;-15917.19;5032279;28;51790;-54
2022/11/30 04:49:03;;;;;;;;;3.50;3.00;;;;;-147.17;100.00;-15917.19;5026315;28;51038;-54
2022/11/30 04:51:28;;;;;;;;;11.75;8.50;;;;;-147.17;100.00;-15917.19;5033274;28;50959;-55
2022/11/30 04:53:53;;;;;;;;;9.50;9.50;;;;;-147.17;100.00;-15917.19;5027899;28;51146;-53
2022/11/30 04:56:18;;;;;;;;;9.50;9.50;;;;;-147.17;100.00;-15917.19;5029560;28;51423;-53
2022/11/30 04:58:44;;;;;;;;;10.00;8.00;;;;;-147.17;100.00;-15917.19;5023139;28;51191;-55
2022/11/30 05:01:09;;;;;;;;;10.50;10.50;;;;;-147.17;100.00;-15917.19;5028297;28;51363;-54
2022/11/30 05:03:35;;;;;;;;;6.00;6.00;;;;;-147.17;100.00;-15917.19;5030969;28;51735;-52
2022/11/30 05:06:00;;;;;;;;;4.00;3.00;;;;;-147.17;100.00;-15917.19;5031409;28;51142;-52
2022/11/30 05:08:26;;;;;;;;;3.00;3.00;;;;;-147.17;100.00;-15917.19;5030796;28;51281;-55
2022/11/30 05:10:54;;;;;;;;;5.00;5.00;;;;;-147.17;100.00;-15917.19;5019324;28;51311;-54
2022/11/30 05:13:24;;;;;;;;;3.00;2.25;;;;;-147.17;100.00;-15917.19;5031486;28;51778;-53
2022/11/30 05:15:49;;;;;;;;;4.50;4.50;;;;;-147.17;100.00;-15917.19;5029881;28;51387;-55
2022/11/30 05:18:15;;;;;;;;;7.50;5.50;;;;;-147.17;100.00;-15917.19;5021838;28;51014;-55
2022/11/30 05:20:40;;;;;;;;;5.75;5.50;;;;;-147.17;100.00;-15917.19;5026369;28;51182;-54
2022/11/30 05:23:05;;;;;;;;;4.50;4.00;;;;;-147.17;100.00;-15917.19;5029516;28;52275;-55
2022/11/30 05:25:31;;;;;;;;;6.00;6.00;;;;;-147.17;100.00;-15917.19;5018599;28;51046;-55
2022/11/30 05:27:56;;;;;;;;;10.50;7.00;;;;;-147.17;100.00;-15917.19;5025666;28;51116;-55
2022/11/30 05:30:22;;;;;;;;;7.25;6.25;;;;;-147.17;100.00;-15917.19;5021662;28;51494;-55
2022/11/30 05:32:47;;;;;;;;;7.00;6.25;;;;;-147.17;100.00;-15917.19;5018498;28;52667;-55
2022/11/30 05:35:12;;;;;;;;;10.75;10.00;;;;;-147.17;100.00;-15917.19;5030248;28;51187;-56
2022/11/30 05:37:38;;;;;;;;;11.75;8.00;;;;;-147.17;100.00;-15917.19;5032163;28;51048;-56
2022/11/30 05:40:04;;;;;;;;;7.75;7.75;;;;;-147.17;100.00;-15917.19;5042306;28;51301;-55
2022/11/30 05:42:29;;;;;;;;;6.50;6.00;;;;;-147.17;100.00;-15917.19;5027517;28;51873;-54
2022/11/30 05:44:54;;;;;;;;;12.00;10.00;;;;;-147.17;100.00;-15917.19;5024836;28;51160;-55
2022/11/30 05:47:20;;;;;;;;;8.50;7.00;;;;;-147.17;100.00;-15917.19;5031214;28;51637;-54
2022/11/30 05:49:45;;;;;;;;;9.75;9.50;;;;;-147.17;100.00;-15917.19;5031067;28;51384;-53
2022/11/30 05:52:10;;;;;;;;;8.50;6.50;;;;;-147.17;100.00;-15917.19;5023873;28;51978;-53
2022/11/30 05:54:36;;;;;;;;;12.75;8.50;;;;;-147.17;100.00;-15917.19;5029503;28;51178;-52
2022/11/30 05:57:01;;;;;;;;;7.25;6.25;;;;;-147.17;100.00;-15917.19;5028020;28;51077;-56
2022/11/30 05:59:27;;;;;;;;;9.50;7.25;;;;;-147.17;100.00;-15917.19;5029090;28;51111;-56
2022/11/30 06:01:52;;;;;;;;;9.00;7.00;;;;;-147.17;100.00;-15917.19;5026912;28;50917;-55
2022/11/30 06:04:18;;;;;;;;;7.25;7.00;;;;;-147.17;100.00;-15917.19;5032915;28;51089;-56
2022/11/30 06:06:43;;;;;;;;;10.50;7.75;;;;;-147.17;100.00;-15917.19;5030483;28;51206;-55
2022/11/30 06:09:09;;;;;;;;;8.50;8.00;;;;;-147.17;100.00;-15917.19;5016665;28;51318;-55
2022/11/30 06:11:34;;;;;;;;;7.50;7.00;;;;;-147.17;100.00;-15917.19;5031074;28;51604;-54
2022/11/30 06:13:59;;;;;;;;;11.00;10.50;;;;;-147.17;100.00;-15917.19;5016558;28;51062;-54
2022/11/30 06:16:25;;;;;;;;;11.75;10.75;;;;;-147.17;100.00;-15917.19;5029112;28;51220;-54
2022/11/30 06:18:51;;;;;;;;;10.00;8.00;;;;;-147.17;100.00;-15917.19;5030690;28;51940;-57
2022/11/30 06:21:16;;;;;;;;;11.75;10.75;;;;;-147.17;100.00;-15917.19;5032723;28;51758;-53
2022/11/30 06:23:41;;;;;;;;;10.75;10.25;;;;;-147.17;100.00;-15917.19;5015536;28;50923;-54
2022/11/30 06:26:09;;;;;;;;;9.75;8.00;;;;;-147.17;100.00;-15917.19;5012922;28;51025;-54
2022/11/30 06:28:35;;;;;;;;;10.50;9.25;;;;;-147.17;100.00;-15917.19;5027514;28;51079;-55
2022/11/30 06:31:02;;;;;;;;;12.25;11.75;;;;;-147.17;100.00;-15917.19;5021768;28;51599;-54
2022/11/30 06:33:28;;;;;;;;;15.50;12.00;;;;;-147.17;100.00;-15917.19;5022414;28;51318;-55
2022/11/30 06:35:56;;;;;;;;;11.25;10.00;;;;;-147.17;100.00;-15917.19;5024258;28;51116;-54
2022/11/30 06:38:23;;;;;;;;;12.50;12.00;;;;;-147.17;100.00;-15917.19;5015761;28;51192;-53
2022/11/30 06:40:48;;;;;;;;;11.75;11.50;;;;;-147.17;100.00;-15917.19;5016395;28;51154;-56
2022/11/30 06:43:14;;;;;;;;;17.00;15.75;;;;;-147.17;100.00;-15917.19;5026265;28;51052;-55
2022/11/30 06:45:42;;;;;;;;;16.25;15.00;;;;;-147.17;100.00;-15917.19;5029004;28;51102;-53
2022/11/30 06:48:07;;;;;;;;;16.75;14.50;;;;;-147.17;100.00;-15917.19;5018749;28;50883;-53
2022/11/30 06:50:33;;;;;;;;;19.00;18.75;;;;;-147.17;100.00;-15917.19;5021845;28;52784;-52
2022/11/30 06:52:58;;;;;;;;;11.25;10.75;;;;;-147.17;100.00;-15917.19;5026442;28;51081;-56
2022/11/30 06:55:23;;;;;;;;;12.00;11.50;;;;;-147.17;100.00;-15917.19;5027865;28;51121;-54
2022/11/30 06:57:49;;;;;;;;;16.50;14.75;;;;;-147.17;100.00;-15917.19;5021537;28;51083;-55
2022/11/30 07:00:15;;;;;;;;;14.25;13.50;;;;;-147.17;100.00;-15917.19;5029882;28;53973;-55
2022/11/30 07:02:41;;;;;;;;;12.00;12.00;;;;;-147.17;100.00;-15917.19;5017743;28;51089;-55
2022/11/30 07:05:06;;;;;;;;;8.75;8.50;;;;;-147.17;100.00;-15917.19;5024099;28;51119;-54
2022/11/30 07:07:32;;;;;;;;;16.75;14.25;;;;;-147.17;100.00;-15917.19;5025663;28;50968;-55
2022/11/30 07:09:57;;;;;;;;;19.50;14.25;;;;;-147.17;100.00;-15917.19;5027097;28;52210;-56
2022/11/30 07:12:24;;;;;;;;;19.75;15.75;;;;;-147.17;100.00;-15917.19;5024158;28;52602;-53
2022/11/30 07:14:55;;;;;;;;;13.00;12.25;;;;;-147.17;100.00;-15917.19;5019368;28;51843;-55
2022/11/30 07:17:20;;;;;;;;;18.00;17.00;;;;;-147.17;100.00;-15917.19;5028872;28;51236;-54
2022/11/30 07:19:46;;;;;;;;;18.25;16.75;;;;;-147.17;100.00;-15917.19;5026192;28;51818;-54
2022/11/30 07:22:11;;;;;;;;;13.50;11.50;;;;;-147.17;100.00;-15917.19;5027074;28;51252;-55
2022/11/30 07:27:21;;;;;;;;;16.00;13.00;;;;;-147.17;100.00;-15917.19;5028211;28;51058;-53
2022/11/30 07:29:47;;;;;;;;;18.50;16.75;;;;;-147.17;100.00;-15917.19;5014017;28;52066;-54
2022/11/30 07:32:13;;;;;;;;;15.25;13.25;;;;;-147.17;100.00;-15917.19;5014163;28;51030;-55
2022/11/30 07:34:39;;;;;;;;;12.00;11.75;;;;;-147.17;100.00;-15917.19;5014259;28;50990;-55
2022/11/30 07:37:04;;;;;;;;;16.75;16.75;;;;;-147.17;100.00;-15917.19;5014018;28;51297;-54
2022/11/30 07:39:29;;;;;;;;;20.25;17.00;;;;;-147.17;100.00;-15917.19;5015459;28;52030;-55
2022/11/30 07:41:55;;;;;;;;;17.50;16.25;;;;;-147.17;100.00;-15917.19;5021830;28;51166;-54
2022/11/30 07:44:20;;;;;;;;;22.00;20.00;;;;;-147.17;100.00;-15917.19;5035665;28;51088;-56
2022/11/30 07:46:45;;;;;;;;;16.50;14.00;;;;;-147.17;100.00;-15917.19;5035606;28;50851;-54
2022/11/30 07:49:11;;;;;;;;;16.00;16.00;;;;;-147.17;100.00;-15917.19;5035387;28;52266;-52
2022/11/30 07:51:36;;;;;;;;;17.75;16.00;;;;;-147.17;100.00;-15917.19;5030630;28;51109;-56
2022/11/30 07:54:03;;;;;;;;;18.25;17.75;;;;;-147.17;100.00;-15917.19;5022151;28;51013;-56
2022/11/30 07:56:28;;;;;;;;;31.25;26.25;;;;;-147.17;100.00;-15917.19;5015156;28;51271;-53
2022/11/30 07:58:59;;;;;;;;;23.00;21.00;;;;;-147.17;100.00;-15917.19;5021027;28;51101;-56
2022/11/30 08:01:28;;;;;;;;;16.75;16.00;;;;;-147.17;100.00;-15917.19;5024464;28;50877;-57
2022/11/30 08:03:53;;;;;;;;;18.50;15.25;;;;;-147.17;100.00;-15917.19;5014400;28;51088;-56
2022/11/30 08:06:27;;;;;;;;;25.50;18.50;;;;;-147.17;100.00;-15917.19;5034398;28;51335;-56
2022/11/30 08:08:55;;;;;;;;;22.25;18.00;;;;;-147.17;100.00;-15917.19;5035061;28;51722;-55
2022/11/30 08:11:25;;;;;;;;;12.75;12.75;;;;;-147.17;100.00;-15917.19;5026859;28;51207;-55
2022/11/30 08:13:50;;;;;;;;;19.50;18.50;;;;;-147.17;100.00;-15917.19;5015198;28;50882;-55
2022/11/30 08:16:18;;;;;;;;;22.50;17.00;;;;;-147.17;100.00;-15917.19;5027038;28;51351;-55
2022/11/30 08:18:43;;;;;;;;;16.75;16.25;;;;;-147.17;100.00;-15917.19;5019659;28;52466;-58
2022/11/30 08:21:11;;;;;;;;;20.25;17.75;;;;;-147.17;100.00;-15917.19;5015063;28;51080;-55
2022/11/30 08:23:43;;;;;;;;;21.75;16.00;;;;;-147.17;100.00;-15917.19;5015166;28;51099;-56
2022/11/30 08:26:14;;;;;;;;;20.25;16.25;;;;;-147.17;100.00;-15917.19;5014497;28;50984;-53
2022/11/30 08:28:43;;;;;;;;;17.00;16.00;;;;;-147.17;100.00;-15917.19;5014311;28;51820;-55
2022/11/30 08:31:11;;;;;;;;;20.50;17.25;;;;;-147.17;100.00;-15917.19;5018098;28;51216;-55
2022/11/30 08:33:36;;;;;;;;;21.25;17.00;;;;;-147.17;100.00;-15917.19;5034392;28;51002;-55
2022/11/30 08:36:09;;;;;;;;;22.75;20.75;;;;;-147.17;100.00;-15917.19;5034725;28;51316;-54
2022/11/30 08:38:35;;;;;;;;;19.25;15.75;;;;;-147.17;100.00;-15917.19;5034633;28;52665;-54
2022/11/30 08:41:04;;;;;;;;;21.25;19.00;;;;;-147.17;100.00;-15917.19;5034317;28;51005;-57
2022/11/30 08:43:30;;;;;;;;;21.00;18.50;;;;;-147.17;100.00;-15917.19;5034292;28;50884;-53
2022/11/30 08:45:56;;;;;;;;;20.50;18.00;;;;;-147.17;100.00;-15917.19;5034542;28;51127;-54
2022/11/30 08:48:22;;;;;;;;;18.25;17.00;;;;;-147.17;100.00;-15917.19;5014720;28;51793;-55
2022/11/30 08:50:47;;;;;;;;;21.75;18.00;;;;;-147.17;100.00;-15917.19;5032442;28;50916;-55
2022/11/30 08:53:13;;;;;;;;;9.00;5.25;;;;;-147.17;100.00;-15917.19;5029074;28;50958;-55
2022/11/30 08:55:38;;;;;;;;;21.25;18.25;;;;;-147.17;100.00;-15917.19;5034120;28;51054;-54
2022/11/30 08:58:03;;;;;;;;;19.50;16.25;;;;;-147.17;100.00;-15917.19;5034045;28;51631;-54
2022/11/30 09:00:29;;;;;;;;;18.00;17.00;;;;;-147.17;100.00;-15917.19;5032678;28;50934;-54
2022/11/30 09:02:55;;;;;;;;;20.25;18.50;;;;;-147.17;100.00;-15917.19;5018718;28;51161;-55
2022/11/30 09:05:20;;;;;;;;;24.25;21.00;;;;;-147.17;100.00;-15917.19;5034242;28;50932;-52
2022/11/30 09:07:45;;;;;;;;;26.50;24.75;;;;;-147.17;100.00;-15917.19;5033767;28;51856;-55
2022/11/30 09:10:11;;;;;;;;;17.00;13.50;;;;;-147.17;100.00;-15917.19;5034216;28;51047;-54
2022/11/30 09:12:39;;;;;;;;;19.25;17.25;;;;;-147.17;100.00;-15917.19;5034256;28;51254;-55
2022/11/30 09:15:06;;;;;;;;;17.50;16.00;;;;;-147.17;100.00;-15917.19;5034273;28;50847;-55
2022/11/30 09:17:32;;;;;;;;;18.00;14.75;;;;;-147.17;100.00;-15917.19;5015474;28;51808;-53
2022/11/30 09:19:58;;;;;;;;;17.50;16.75;;;;;-147.17;100.00;-15917.19;5014984;28;51021;-56
2022/11/30 09:22:24;;;;;;;;;20.50;17.00;;;;;-147.17;100.00;-15917.19;5013971;28;51006;-54
2022/11/30 09:24:49;;;;;;;;;16.00;14.00;;;;;-147.17;100.00;-15917.19;5013959;28;51078;-55
2022/11/30 09:27:15;;;;;;;;;27.00;22.25;;;;;-147.17;100.00;-15917.19;5013411;28;51334;-55
2022/11/30 09:29:40;;;;;;;;;21.00;18.25;;;;;-147.17;100.00;-15917.19;5013631;28;51117;-53
2022/11/30 09:32:05;;;;;;;;;18.25;16.25;;;;;-147.17;100.00;-15917.19;5013627;28;51336;-55
2022/11/30 09:34:31;;;;;;;;;24.75;18.25;;;;;-147.17;100.00;-15917.19;5014120;28;50937;-56
2022/11/30 09:36:56;;;;;;;;;16.00;14.50;;;;;-147.17;100.00;-15917.19;5025802;28;53277;-56
2022/11/30 09:39:22;;;;;;;;;24.50;22.75;;;;;-147.17;100.00;-15917.19;5013506;28;51135;-53
2022/11/30 09:41:47;;;;;;;;;22.75;17.25;;;;;-147.17;100.00;-15917.19;5013600;28;51119;-54
2022/11/30 09:44:20;;;;;;;;;21.25;19.50;;;;;-147.17;100.00;-15917.19;5013128;28;50966;-52
2022/11/30 09:47:24;;;;;;;;;28.50;24.00;;;;;-147.17;100.00;-15917.19;5019232;28;51017;-54
2022/11/30 09:49:50;;;;;;;;;27.25;22.00;;;;;-147.17;100.00;-15917.19;5012078;28;51163;-53
2022/11/30 09:52:29;;;;;;;;;26.50;23.00;;;;;-147.17;100.00;-15917.19;5032140;28;50967;-55
2022/11/30 09:54:55;;;;;;;;;23.00;21.75;;;;;-147.17;100.00;-15917.19;5013698;28;50888;-52
2022/11/30 09:57:45;;;;;;;;;24.25;22.50;;;;;-147.17;100.00;-15917.19;5011886;28;53317;-54
2022/11/30 10:00:18;;;;;;;;;27.25;23.00;;;;;-147.17;100.00;-15917.19;5014036;28;51029;-55
2022/11/30 10:02:44;;;;;;;;;28.25;27.25;;;;;-147.17;100.00;-15917.19;5033255;28;51075;-54
2022/11/30 10:05:15;;;;;;;;;24.25;22.25;;;;;-147.17;100.00;-15917.19;5022856;28;51007;-56
2022/11/30 10:07:50;;;;;;;;;24.25;23.50;;;;;-147.17;100.00;-15917.19;5017204;28;51921;-53
2022/11/30 10:10:34;;;;;;;;;35.00;25.50;;;;;-147.17;100.00;-15917.19;5025553;28;50892;-55
2022/11/30 10:13:24;;;;;;;;;29.50;23.25;;;;;-147.17;100.00;-15917.19;5032628;28;51115;-55
2022/11/30 10:16:01;;;;;;;;;26.50;25.50;;;;;-147.17;100.00;-15917.19;5030170;28;50923;-56
2022/11/30 10:18:45;;;;;;;;;24.50;24.50;;;;;-147.17;100.00;-15917.19;5020187;28;51183;-55
2022/11/30 10:21:33;;;;;;;;;26.00;24.50;;;;;-147.17;100.00;-15917.19;5015653;28;50947;-55
2022/11/30 10:24:09;;;;;;;;;29.00;25.75;;;;;-147.17;100.00;-15917.19;5023937;28;51108;-54
2022/11/30 10:26:37;;;;;;;;;28.50;24.75;;;;;-147.17;100.00;-15917.19;5016789;28;50856;-56
2022/11/30 10:29:24;;;;;;;;;30.75;28.25;;;;;-147.17;100.00;-15917.19;5023039;28;52661;-53
2022/11/30 10:31:56;;;;;;;;;27.25;26.25;;;;;-147.17;100.00;-15917.19;5012682;28;51226;-55
2022/11/30 10:34:34;;;;;;;;;32.00;29.25;;;;;-147.17;100.00;-15917.19;5022797;28;51105;-54
2022/11/30 10:37:05;;;;;;;;;27.75;26.50;;;;;-147.17;100.00;-15917.19;5013204;28;51232;-54
2022/11/30 10:39:40;;;;;;;;;31.25;26.25;;;;;-147.17;100.00;-15917.19;5025119;28;51985;-55
2022/11/30 10:42:16;;;;;;;;;33.00;30.25;;;;;-147.17;100.00;-15917.19;5031673;28;51110;-54
2022/11/30 10:44:48;;;;;;;;;29.75;25.50;;;;;-147.17;100.00;-15917.19;5031936;28;51107;-53
2022/11/30 10:47:24;;;;;;;;;33.25;28.75;;;;;-147.17;100.00;-15917.19;5032763;28;51033;-55
2022/11/30 10:49:51;;;;;;;;;30.75;30.00;;;;;-147.17;100.00;-15917.19;5025199;28;50959;-56
2022/11/30 10:52:23;;;;;;;;;27.00;23.00;;;;;-147.17;100.00;-15917.19;5015683;28;50983;-55
2022/11/30 10:54:53;;;;;;;;;25.50;22.75;;;;;-147.17;100.00;-15917.19;5032070;28;51090;-54